Time;durP1;ratioP1;P1;durP2;ratioP2;P2;SDS_P1;SDS_P2;PMS_P1;PMS_P2;Temp;Humidity;BMP_temperature;BMP_pressure;BME280_temperature;BME280_humidity;BME280_pressure;Samples;Min_cycle;Max_cycle;Signal;HPM_P1;HPM_P2
2024/04/12 00:02:26;;;;;;;130.93;14.30;;;;;;;;;;5398855;26;20003;-61
2024/04/12 00:05:02;;;;;;;134.18;14.68;;;;;;;;;;5392073;26;20466;-61
2024/04/12 00:07:35;;;;;;;123.97;12.75;;;;;;;;;;5349712;26;21173;-61
2024/04/12 00:10:16;;;;;;;151.48;15.43;;;;;;;;;;5391947;26;20413;-61
2024/04/12 00:12:51;;;;;;;109.70;14.13;;;;;;;;;;5398386;26;20007;-62
2024/04/12 00:15:26;;;;;;;113.10;13.65;;;;;;;;;;5398804;26;20554;-62
2024/04/12 00:18:01;;;;;;;110.75;14.10;;;;;;;;;;5397681;26;20040;-62
2024/04/12 00:20:29;;;;;;;133.85;14.48;;;;;;;;;;5401107;26;20027;-62
2024/04/12 00:22:57;;;;;;;122.85;15.10;;;;;;;;;;5390839;26;20000;-62
2024/04/12 00:25:30;;;;;;;105.28;13.85;;;;;;;;;;5399561;26;20003;-62
2024/04/12 00:27:58;;;;;;;115.10;13.90;;;;;;;;;;5400085;26;20000;-62
2024/04/12 00:30:37;;;;;;;142.30;16.15;;;;;;;;;;5401346;26;20490;-54
2024/04/12 00:33:11;;;;;;;123.80;13.52;;;;;;;;;;5397843;26;20553;-54
2024/04/12 00:35:49;;;;;;;135.07;15.77;;;;;;;;;;5398245;26;20469;-55
2024/04/12 00:38:30;;;;;;;150.60;14.13;;;;;;;;;;5404914;26;20018;-55
2024/04/12 00:41:12;;;;;;;106.20;12.88;;;;;;;;;;5395979;26;20026;-53
2024/04/12 00:43:45;;;;;;;146.50;14.48;;;;;;;;;;5404322;26;20080;-62
2024/04/12 00:46:23;;;;;;;150.38;15.90;;;;;;;;;;5397631;26;20080;-62
2024/04/12 00:48:52;;;;;;;150.20;14.40;;;;;;;;;;5398696;26;20007;-63
2024/04/12 00:51:21;;;;;;;138.75;15.02;;;;;;;;;;5399973;26;20057;-62
2024/04/12 00:53:56;;;;;;;136.40;16.40;;;;;;;;;;5402243;26;20020;-62
2024/04/12 00:56:29;;;;;;;148.00;15.73;;;;;;;;;;5363875;26;20018;-61
2024/04/12 00:59:02;;;;;;;147.13;13.43;;;;;;;;;;5400375;26;20007;-61
2024/04/12 01:01:30;;;;;;;;;;;;;;;;;;5397108;26;20071;-61
2024/04/12 01:04:06;;;;;;;134.70;14.90;;;;;;;;;;5396443;26;19925;-61
2024/04/12 01:06:33;;;;;;;145.73;15.52;;;;;;;;;;5402729;26;20767;-61
2024/04/12 01:09:13;;;;;;;160.75;15.20;;;;;;;;;;5396516;26;20007;-62
2024/04/12 01:11:56;;;;;;;154.75;17.10;;;;;;;;;;5401996;26;20050;-54
2024/04/12 01:14:25;;;;;;;132.15;14.77;;;;;;;;;;5405280;26;20014;-55
2024/04/12 01:16:58;;;;;;;139.70;14.02;;;;;;;;;;5395446;26;20480;-53
2024/04/12 01:19:27;;;;;;;;;;;;;;;;;;5401127;26;20014;-56
2024/04/12 01:21:54;;;;;;;129.52;13.40;;;;;;;;;;5400733;26;19933;-54
2024/04/12 01:24:29;;;;;;;128.52;14.50;;;;;;;;;;5393486;26;20008;-50
2024/04/12 01:26:58;;;;;;;113.65;14.20;;;;;;;;;;5402085;26;20004;-67
2024/04/12 01:29:25;;;;;;;96.57;12.20;;;;;;;;;;5400224;26;20001;-67
2024/04/12 01:32:03;;;;;;;124.90;14.02;;;;;;;;;;5396328;26;20544;-66
2024/04/12 01:34:31;;;;;;;102.93;13.02;;;;;;;;;;5396952;26;20018;-67
2024/04/12 01:37:15;;;;;;;113.78;12.45;;;;;;;;;;5396142;26;20375;-53
2024/04/12 01:39:44;;;;;;;93.75;12.18;;;;;;;;;;5399285;26;20011;-65
2024/04/12 01:42:37;;;;;;;90.10;11.05;;;;;;;;;;5403767;26;20424;-64
2024/04/12 01:45:26;;;;;;;107.70;13.02;;;;;;;;;;5385272;26;20072;-64
2024/04/12 01:48:17;;;;;;;110.32;13.45;;;;;;;;;;5393865;26;20023;-64
2024/04/12 01:50:46;;;;;;;106.28;12.68;;;;;;;;;;5400581;26;20008;-63
2024/04/12 01:53:15;;;;;;;116.20;13.57;;;;;;;;;;5401766;26;20003;-64
2024/04/12 01:55:50;;;;;;;87.47;12.18;;;;;;;;;;5398308;26;20544;-66
2024/04/12 01:58:21;;;;;;;109.95;12.73;;;;;;;;;;5399119;26;20466;-66
2024/04/12 02:00:49;;;;;;;112.95;14.10;;;;;;;;;;5396697;26;20004;-66
2024/04/12 02:03:29;;;;;;;108.28;13.20;;;;;;;;;;5395185;26;20030;-65
2024/04/12 02:05:57;;;;;;;93.80;12.88;;;;;;;;;;5398477;26;20022;-61
2024/04/12 02:08:32;;;;;;;98.45;12.35;;;;;;;;;;5397270;26;20015;-54
2024/04/12 02:11:06;;;;;;;93.72;12.85;;;;;;;;;;5396093;26;20000;-54
2024/04/12 02:13:41;;;;;;;125.57;13.55;;;;;;;;;;5398063;26;20076;-54
2024/04/12 02:16:10;;;;;;;;;;;;;;;;;;5396856;26;20019;-54
2024/04/12 02:18:41;;;;;;;114.78;12.70;;;;;;;;;;5398182;26;19924;-55
2024/04/12 02:21:15;;;;;;;97.80;11.68;;;;;;;;;;5396016;26;20004;-53
2024/04/12 02:23:44;;;;;;;115.88;15.80;;;;;;;;;;5399099;26;20015;-60
2024/04/12 02:26:11;;;;;;;117.43;13.77;;;;;;;;;;5398127;26;20015;-60
2024/04/12 02:28:47;;;;;;;105.25;14.02;;;;;;;;;;5396892;26;20019;-61
2024/04/12 02:31:14;;;;;;;100.82;12.57;;;;;;;;;;5394723;26;20022;-61
2024/04/12 02:33:42;;;;;;;116.88;15.20;;;;;;;;;;5400503;26;20683;-61
2024/04/12 02:36:18;;;;;;;143.43;16.70;;;;;;;;;;5399689;26;20017;-61
2024/04/12 02:38:52;;;;;;;128.15;14.15;;;;;;;;;;5398229;26;20524;-61
2024/04/12 02:41:37;;;;;;;132.45;14.68;;;;;;;;;;5396182;26;20022;-61
2024/04/12 02:44:06;;;;;;;117.35;13.80;;;;;;;;;;5396300;26;20557;-61
2024/04/12 02:46:40;;;;;;;114.10;13.23;;;;;;;;;;5396239;26;20082;-61
2024/04/12 02:49:10;;;;;;;146.35;15.18;;;;;;;;;;5400351;26;20683;-61
2024/04/12 02:51:47;;;;;;;118.20;15.10;;;;;;;;;;5398525;26;20000;-62
2024/04/12 02:54:20;;;;;;;119.47;14.13;;;;;;;;;;5398888;26;20003;-62
2024/04/12 02:56:52;;;;;;;139.77;16.10;;;;;;;;;;5397432;26;20467;-62
2024/04/12 02:59:27;;;;;;;120.25;15.75;;;;;;;;;;5397251;26;20047;-62
2024/04/12 03:01:54;;;;;;;146.93;15.13;;;;;;;;;;5394102;26;20007;-61
2024/04/12 03:04:22;;;;;;;126.40;13.63;;;;;;;;;;5394664;26;20015;-48
2024/04/12 03:06:56;;;;;;;143.05;14.45;;;;;;;;;;5400832;26;20015;-62
2024/04/12 03:09:27;;;;;;;149.55;15.10;;;;;;;;;;5390947;26;20004;-62
2024/04/12 03:12:12;;;;;;;124.05;14.00;;;;;;;;;;5365542;26;20113;-61
2024/04/12 03:14:39;;;;;;;119.68;14.18;;;;;;;;;;5364517;26;20000;-61
2024/04/12 03:17:14;;;;;;;119.90;13.27;;;;;;;;;;5364219;26;20036;-61
2024/04/12 03:19:41;;;;;;;119.90;12.98;;;;;;;;;;5361583;26;20008;-61
2024/04/12 03:22:08;;;;;;;138.38;14.95;;;;;;;;;;5359359;26;20402;-61
2024/04/12 03:24:42;;;;;;;110.82;15.63;;;;;;;;;;5356999;26;20026;-61
2024/04/12 03:27:11;;;;;;;149.18;13.43;;;;;;;;;;5364918;26;20004;-61
2024/04/12 03:29:38;;;;;;;123.60;14.98;;;;;;;;;;5359738;26;20048;-62
2024/04/12 03:32:12;;;;;;;145.68;15.82;;;;;;;;;;5359317;26;20004;-60
2024/04/12 03:34:40;;;;;;;142.32;15.52;;;;;;;;;;5360979;26;20008;-61
2024/04/12 03:37:36;;;;;;;132.80;14.32;;;;;;;;;;5363381;26;20004;-61
2024/04/12 03:40:17;;;;;;;124.35;13.50;;;;;;;;;;5359872;26;20397;-61
2024/04/12 03:42:52;;;;;;;124.97;13.77;;;;;;;;;;5365709;26;20019;-61
2024/04/12 03:45:24;;;;;;;145.05;15.55;;;;;;;;;;5365299;26;20012;-61
2024/04/12 03:47:58;;;;;;;125.85;13.60;;;;;;;;;;5364094;26;20007;-61
2024/04/12 03:50:34;;;;;;;136.60;13.70;;;;;;;;;;5360773;26;20019;-52
2024/04/12 03:53:14;;;;;;;139.68;14.50;;;;;;;;;;5357927;26;20044;-53
2024/04/12 03:55:54;;;;;;;136.32;14.10;;;;;;;;;;5356802;26;20008;-54
2024/04/12 03:58:29;;;;;;;154.25;14.80;;;;;;;;;;5357079;26;20051;-52
2024/04/12 04:00:57;;;;;;;125.38;14.38;;;;;;;;;;5347975;26;20082;-66
2024/04/12 04:03:30;;;;;;;;;;;;;;;;;;5366052;26;20004;-61
2024/04/12 04:06:11;;;;;;;162.32;14.57;;;;;;;;;;5362122;26;19938;-63
2024/04/12 04:08:48;;;;;;;135.20;15.07;;;;;;;;;;5364531;26;20532;-63
2024/04/12 04:11:42;;;;;;;158.80;14.57;;;;;;;;;;5396363;26;20076;-63
2024/04/12 04:14:25;;;;;;;128.27;15.00;;;;;;;;;;5395884;26;20037;-61
2024/04/12 04:17:01;;;;;;;150.75;14.35;;;;;;;;;;5394175;26;20105;-61
2024/04/12 04:19:38;;;;;;;182.98;15.75;;;;;;;;;;5390071;26;20585;-61
2024/04/12 04:22:39;;;;;;;155.73;15.65;;;;;;;;;;5392828;26;20631;-62
2024/04/12 04:25:10;;;;;;;161.25;16.98;;;;;;;;;;5391876;26;20015;-61
2024/04/12 04:27:46;;;;;;;147.80;15.90;;;;;;;;;;5396552;26;20100;-54
2024/04/12 04:30:17;;;;;;;146.02;14.23;;;;;;;;;;5391884;26;20015;-65
2024/04/12 04:32:53;;;;;;;159.48;15.00;;;;;;;;;;5395535;26;20351;-65
2024/04/12 04:35:27;;;;;;;156.63;14.02;;;;;;;;;;5387168;26;20587;-65
2024/04/12 04:38:01;;;;;;;160.73;16.05;;;;;;;;;;5394016;26;20079;-66
2024/04/12 04:40:35;;;;;;;161.88;15.68;;;;;;;;;;5393564;26;19996;-65
2024/04/12 04:43:07;;;;;;;144.52;16.00;;;;;;;;;;5397590;26;20022;-64
2024/04/12 04:45:35;;;;;;;149.77;16.70;;;;;;;;;;5398768;26;20039;-62
2024/04/12 04:48:10;;;;;;;145.10;14.88;;;;;;;;;;5398292;26;20003;-62
2024/04/12 04:50:39;;;;;;;149.27;16.92;;;;;;;;;;5394798;26;20076;-62
2024/04/12 04:53:12;;;;;;;160.23;17.00;;;;;;;;;;5394723;26;20484;-61
2024/04/12 04:55:40;;;;;;;150.50;14.00;;;;;;;;;;5397022;26;20007;-61
2024/04/12 04:58:08;;;;;;;130.88;16.20;;;;;;;;;;5398483;26;20462;-65
2024/04/12 05:00:45;;;;;;;146.73;15.50;;;;;;;;;;5397462;26;20605;-64
2024/04/12 05:03:15;;;;;;;153.25;14.80;;;;;;;;;;5397350;26;20024;-65
2024/04/12 05:05:49;;;;;;;145.82;14.68;;;;;;;;;;5396615;26;20040;-65
2024/04/12 05:08:20;;;;;;;118.82;14.30;;;;;;;;;;5393975;26;19999;-65
2024/04/12 05:10:54;;;;;;;123.70;14.30;;;;;;;;;;5396664;26;20003;-65
2024/04/12 05:13:38;;;;;;;127.35;13.98;;;;;;;;;;5402685;26;20082;-65
2024/04/12 05:16:12;;;;;;;132.73;15.07;;;;;;;;;;5401114;26;20543;-64
2024/04/12 05:18:52;;;;;;;112.15;13.60;;;;;;;;;;5396239;26;20470;-65
2024/04/12 05:21:26;;;;;;;105.00;13.48;;;;;;;;;;5374861;26;20477;-65
2024/04/12 05:24:00;;;;;;;120.70;12.23;;;;;;;;;;5397316;26;20019;-62
2024/04/12 05:26:35;;;;;;;114.68;12.85;;;;;;;;;;5396296;26;20007;-61
2024/04/12 05:29:10;;;;;;;102.47;12.15;;;;;;;;;;5399387;26;20011;-65
2024/04/12 05:31:37;;;;;;;110.47;12.95;;;;;;;;;;5400304;26;20004;-65
2024/04/12 05:34:05;;;;;;;111.57;12.85;;;;;;;;;;5401725;26;20011;-65
2024/04/12 05:36:41;;;;;;;106.03;11.88;;;;;;;;;;5404066;26;20004;-65
2024/04/12 05:39:19;;;;;;;120.78;13.50;;;;;;;;;;5402182;26;20346;-65
2024/04/12 05:41:58;;;;;;;99.28;11.93;;;;;;;;;;5397710;26;20021;-63
2024/04/12 05:44:26;;;;;;;104.18;11.77;;;;;;;;;;5401781;26;20018;-53
2024/04/12 05:46:53;;;;;;;97.97;11.88;;;;;;;;;;5397654;26;20391;-51
2024/04/12 05:49:30;;;;;;;93.78;11.68;;;;;;;;;;5402161;26;20012;-55
2024/04/12 05:52:01;;;;;;;77.10;11.45;;;;;;;;;;5396626;26;21002;-55
2024/04/12 05:54:44;;;;;;;113.03;13.50;;;;;;;;;;5405330;26;20412;-63
2024/04/12 05:57:12;;;;;;;98.27;10.83;;;;;;;;;;5402089;26;20012;-62
2024/04/12 05:59:48;;;;;;;102.78;11.75;;;;;;;;;;5399880;26;20245;-62
2024/04/12 06:02:17;;;;;;;101.18;12.80;;;;;;;;;;5395192;26;20011;-62
2024/04/12 06:04:47;;;;;;;89.68;12.30;;;;;;;;;;5400196;26;20080;-62
2024/04/12 06:07:21;;;;;;;94.43;12.00;;;;;;;;;;5398556;26;20011;-62
2024/04/12 06:09:49;;;;;;;96.32;11.80;;;;;;;;;;5373445;26;20007;-63
2024/04/12 06:12:33;;;;;;;95.55;11.93;;;;;;;;;;5401180;26;20004;-62
2024/04/12 06:15:04;;;;;;;96.38;12.77;;;;;;;;;;5399977;26;20003;-62
2024/04/12 06:17:38;;;;;;;88.38;12.52;;;;;;;;;;5397349;26;20004;-62
2024/04/12 06:20:07;;;;;;;;;;;;;;;;;;5399297;26;20018;-62
2024/04/12 06:22:43;;;;;;;93.95;12.85;;;;;;;;;;5399912;26;20356;-52
2024/04/12 06:25:14;;;;;;;97.40;12.10;;;;;;;;;;5400417;26;20000;-63
2024/04/12 06:27:49;;;;;;;76.97;12.18;;;;;;;;;;5404032;26;20563;-63
2024/04/12 06:30:24;;;;;;;99.63;11.48;;;;;;;;;;5399508;26;20018;-63
2024/04/12 06:32:59;;;;;;;105.65;12.93;;;;;;;;;;5396354;26;21089;-63
2024/04/12 06:35:34;;;;;;;103.18;12.93;;;;;;;;;;5398494;26;20869;-62
2024/04/12 06:38:08;;;;;;;74.53;10.15;;;;;;;;;;5398498;26;22538;-63
2024/04/12 06:40:52;;;;;;;79.75;9.40;;;;;;;;;;5401775;26;20060;-62
2024/04/12 06:43:27;;;;;;;82.88;12.10;;;;;;;;;;5399703;26;20444;-62
2024/04/12 06:46:07;;;;;;;78.63;11.75;;;;;;;;;;5400568;26;20059;-62
2024/04/12 06:48:41;;;;;;;72.18;10.27;;;;;;;;;;5403653;26;20004;-62
2024/04/12 06:51:14;;;;;;;73.07;11.00;;;;;;;;;;5396432;26;20007;-63
2024/04/12 06:53:45;;;;;;;82.20;12.35;;;;;;;;;;5399360;26;20003;-62
2024/04/12 06:56:20;;;;;;;87.63;11.55;;;;;;;;;;5398521;26;20505;-62
2024/04/12 06:58:48;;;;;;;83.82;11.35;;;;;;;;;;5400763;26;20030;-62
2024/04/12 07:01:21;;;;;;;79.60;11.93;;;;;;;;;;5399842;26;20374;-62
2024/04/12 07:04:05;;;;;;;81.43;11.35;;;;;;;;;;5398456;26;20019;-62
2024/04/12 07:06:32;;;;;;;90.20;12.18;;;;;;;;;;5400550;26;20011;-62
2024/04/12 07:09:08;;;;;;;85.80;12.80;;;;;;;;;;5394924;26;20055;-51
2024/04/12 07:11:44;;;;;;;84.65;11.88;;;;;;;;;;5398024;26;20738;-49
2024/04/12 07:14:22;;;;;;;79.80;12.30;;;;;;;;;;5400284;26;20004;-54
2024/04/12 07:16:50;;;;;;;83.47;11.32;;;;;;;;;;5401168;26;20039;-50
2024/04/12 07:19:18;;;;;;;;;;;;;;;;;;5400812;26;20459;-52
2024/04/12 07:21:56;;;;;;;70.25;11.20;;;;;;;;;;5402540;26;20326;-61
2024/04/12 07:24:25;;;;;;;90.63;12.80;;;;;;;;;;5399480;26;20014;-62
2024/04/12 07:26:55;;;;;;;106.20;13.82;;;;;;;;;;5399894;26;20019;-62
2024/04/12 07:29:31;;;;;;;90.07;12.68;;;;;;;;;;5399916;26;20007;-61
2024/04/12 07:31:58;;;;;;;83.78;12.10;;;;;;;;;;5398735;26;20020;-62
2024/04/12 07:34:32;;;;;;;86.80;12.68;;;;;;;;;;5372808;26;20004;-62
2024/04/12 07:37:00;;;;;;;85.38;12.73;;;;;;;;;;5401350;26;20008;-68
2024/04/12 07:39:41;;;;;;;67.45;12.23;;;;;;;;;;5400531;26;20011;-66
2024/04/12 07:42:08;;;;;;;95.53;12.73;;;;;;;;;;5398970;26;20007;-66
2024/04/12 07:44:43;;;;;;;72.32;11.68;;;;;;;;;;5395046;26;20000;-64
2024/04/12 07:47:10;;;;;;;78.72;12.93;;;;;;;;;;5395034;26;20565;-60
2024/04/12 07:49:48;;;;;;;98.53;13.68;;;;;;;;;;5403808;26;20007;-66
2024/04/12 07:52:27;;;;;;;89.18;13.43;;;;;;;;;;5400369;26;20018;-67
2024/04/12 07:54:54;;;;;;;79.70;12.32;;;;;;;;;;5403638;26;20032;-67
2024/04/12 07:57:29;;;;;;;62.80;10.52;;;;;;;;;;5400534;26;20012;-68
2024/04/12 07:59:56;;;;;;;66.30;10.38;;;;;;;;;;5396441;26;20007;-68
2024/04/12 08:02:24;;;;;;;79.85;12.35;;;;;;;;;;5398663;26;20929;-68
2024/04/12 08:05:14;;;;;;;73.30;11.95;;;;;;;;;;5400999;26;20365;-51
2024/04/12 08:07:41;;;;;;;69.13;10.73;;;;;;;;;;5396922;26;20063;-51
2024/04/12 08:10:29;;;;;;;59.55;11.07;;;;;;;;;;5397750;26;20015;-54
2024/04/12 08:13:10;;;;;;;77.53;11.50;;;;;;;;;;5401670;26;20077;-55
2024/04/12 08:15:49;;;;;;;67.40;10.97;;;;;;;;;;5397163;26;20093;-60
2024/04/12 08:18:20;;;;;;;70.85;11.77;;;;;;;;;;5397580;26;20150;-47
2024/04/12 08:21:01;;;;;;;69.10;10.02;;;;;;;;;;5395076;26;20367;-52
2024/04/12 08:23:29;;;;;;;55.92;11.07;;;;;;;;;;5396583;26;20016;-50
2024/04/12 08:26:10;;;;;;;63.08;9.90;;;;;;;;;;5399891;26;20012;-50
2024/04/12 08:28:40;;;;;;;47.92;8.98;;;;;;;;;;5363896;26;20008;-48
2024/04/12 08:31:18;;;;;;;50.35;9.38;;;;;;;;;;5398771;26;19999;-50
2024/04/12 08:33:45;;;;;;;46.40;9.13;;;;;;;;;;5396863;26;20019;-51
2024/04/12 08:36:16;;;;;;;39.95;8.48;;;;;;;;;;5395078;26;20011;-48
2024/04/12 08:38:54;;;;;;;45.60;8.07;;;;;;;;;;5396925;26;20026;-48
2024/04/12 08:41:31;;;;;;;36.38;7.10;;;;;;;;;;5396368;26;20003;-50
2024/04/12 08:44:09;;;;;;;37.17;6.85;;;;;;;;;;5394588;26;20000;-50
2024/04/12 08:46:38;;;;;;;33.28;7.35;;;;;;;;;;5399493;26;20015;-60
2024/04/12 08:49:13;;;;;;;31.80;7.20;;;;;;;;;;5405041;26;20027;-60
2024/04/12 08:51:53;;;;;;;34.35;6.50;;;;;;;;;;5398459;26;20003;-60
2024/04/12 08:54:21;;;;;;;28.27;6.82;;;;;;;;;;5398654;26;20015;-60
2024/04/12 08:56:55;;;;;;;26.77;5.35;;;;;;;;;;5399650;26;20351;-60
2024/04/12 08:59:26;;;;;;;;;;;;;;;;;;5398616;26;20019;-60
2024/04/12 09:01:55;;;;;;;29.25;5.85;;;;;;;;;;5403715;26;19935;-52
2024/04/12 09:04:31;;;;;;;32.58;6.05;;;;;;;;;;5397668;26;20031;-51
2024/04/12 09:06:59;;;;;;;21.40;5.18;;;;;;;;;;5397861;26;20330;-50
2024/04/12 09:09:26;;;;;;;22.52;5.25;;;;;;;;;;5398264;26;20498;-50
2024/04/12 09:12:12;;;;;;;22.55;5.53;;;;;;;;;;5399224;26;20007;-62
2024/04/12 09:14:40;;;;;;;16.40;4.35;;;;;;;;;;5397734;26;20011;-69
2024/04/12 09:17:16;;;;;;;18.63;5.03;;;;;;;;;;5397640;26;20008;-69
2024/04/12 09:19:45;;;;;;;12.15;4.70;;;;;;;;;;5399899;26;20010;-69
2024/04/12 09:22:17;;;;;;;15.60;4.40;;;;;;;;;;5400418;26;20080;-68
2024/04/12 09:24:56;;;;;;;11.93;4.07;;;;;;;;;;5399764;26;20017;-68
2024/04/12 09:27:23;;;;;;;19.20;4.95;;;;;;;;;;5399000;26;20050;-68
2024/04/12 09:29:58;;;;;;;14.23;3.92;;;;;;;;;;5399480;26;20015;-61
2024/04/12 09:32:51;;;;;;;13.50;3.85;;;;;;;;;;5398156;26;20012;-61
2024/04/12 09:35:21;;;;;;;14.20;3.83;;;;;;;;;;5398908;26;20022;-61
2024/04/12 09:38:05;;;;;;;12.23;3.78;;;;;;;;;;5400080;26;20015;-61
2024/04/12 09:40:40;;;;;;;12.30;3.53;;;;;;;;;;5401699;26;20015;-52
2024/04/12 09:45:52;;;;;;;10.43;3.80;;;;;;;;;;5400741;26;20018;-49
2024/04/12 10:37:28;;;;;;;3.95;1.40;;;;;;;;;;5398704;26;20003;-50
2024/04/12 10:40:09;;;;;;;4.45;1.80;;;;;;;;;;5395650;26;20559;-59
2024/04/12 10:42:46;;;;;;;2.47;1.27;;;;;;;;;;5395487;26;20007;-60
2024/04/12 10:45:20;;;;;;;2.00;1.13;;;;;;;;;;5398451;26;20007;-60
2024/04/12 10:47:48;;;;;;;2.83;1.13;;;;;;;;;;5369957;26;23282;-59
2024/04/12 10:50:19;;;;;;;;;;;;;;;;;;5400838;26;20308;-60
2024/04/12 10:52:57;;;;;;;1.35;1.00;;;;;;;;;;5400766;26;20302;-60
2024/04/12 10:55:29;;;;;;;2.08;1.00;;;;;;;;;;5404686;26;20013;-52
2024/04/12 10:58:05;;;;;;;1.45;1.35;;;;;;;;;;5400900;26;20011;-51
2024/04/12 11:00:35;;;;;;;3.67;1.50;;;;;;;;;;5397103;26;20085;-49
2024/04/12 11:03:14;;;;;;;1.25;0.90;;;;;;;;;;5395609;26;20021;-48
2024/04/12 11:06:02;;;;;;;1.52;1.42;;;;;;;;;;5395751;26;20713;-59
2024/04/12 11:08:31;;;;;;;1.02;0.90;;;;;;;;;;5393932;26;20000;-60
2024/04/12 11:11:15;;;;;;;1.80;1.05;;;;;;;;;;5396874;26;20474;-60
2024/04/12 11:13:52;;;;;;;1.10;0.85;;;;;;;;;;5401294;26;20044;-60
2024/04/12 11:33:39;;;;;;;1.48;1.00;;;;;;;;;;5394661;26;20039;-60
2024/04/12 11:36:19;;;;;;;1.52;0.88;;;;;;;;;;5396669;26;20003;-60
2024/04/12 11:38:54;;;;;;;0.90;0.90;;;;;;;;;;5397346;26;20084;-59
2024/04/12 11:41:28;;;;;;;2.50;0.75;;;;;;;;;;5397501;26;20040;-59
2024/04/12 11:44:08;;;;;;;2.67;0.88;;;;;;;;;;5398889;26;20008;-59
2024/04/12 11:46:36;;;;;;;1.10;1.00;;;;;;;;;;5401694;26;20007;-60
2024/04/12 11:49:11;;;;;;;2.53;1.15;;;;;;;;;;5400167;26;20015;-60
2024/04/12 11:51:40;;;;;;;1.90;0.95;;;;;;;;;;5398000;26;20055;-60
2024/04/12 11:54:13;;;;;;;1.95;1.23;;;;;;;;;;5395593;26;19999;-60
2024/04/12 11:56:49;;;;;;;1.83;1.23;;;;;;;;;;5396407;26;20003;-61
2024/04/12 11:59:18;;;;;;;1.73;1.25;;;;;;;;;;5368932;26;20027;-60
2024/04/12 12:01:52;;;;;;;2.20;1.60;;;;;;;;;;5397543;26;20474;-61
2024/04/12 12:04:21;;;;;;;4.07;2.00;;;;;;;;;;5396281;26;20031;-69
2024/04/12 12:06:49;;;;;;;2.55;1.98;;;;;;;;;;5397186;26;20011;-60
2024/04/12 12:09:23;;;;;;;2.72;1.70;;;;;;;;;;5389906;26;20081;-60
2024/04/12 12:11:56;;;;;;;3.53;1.88;;;;;;;;;;5394741;26;20003;-61
2024/04/12 12:14:33;;;;;;;2.15;1.60;;;;;;;;;;5398418;26;20014;-61
2024/04/12 12:17:00;;;;;;;3.78;1.67;;;;;;;;;;5400010;26;20016;-61
2024/04/12 12:19:30;;;;;;;1.98;1.48;;;;;;;;;;5399236;26;20008;-61
2024/04/12 12:22:04;;;;;;;2.53;1.73;;;;;;;;;;5394494;26;20979;-62
2024/04/12 12:24:37;;;;;;;;;;;;;;;;;;5399329;26;20013;-61
2024/04/12 12:27:12;;;;;;;2.20;1.33;;;;;;;;;;5394433;26;19925;-62
2024/04/12 12:29:42;;;;;;;2.70;1.60;;;;;;;;;;5398535;26;20621;-62
2024/04/12 12:32:11;;;;;;;3.20;1.50;;;;;;;;;;5394633;26;20011;-60
2024/04/12 12:34:47;;;;;;;1.55;1.38;;;;;;;;;;5363034;26;20047;-50
2024/04/12 12:37:15;;;;;;;1.70;1.35;;;;;;;;;;5395418;26;20024;-53
2024/04/12 12:39:43;;;;;;;1.58;1.17;;;;;;;;;;5398858;26;20072;-49
2024/04/12 12:42:24;;;;;;;1.45;0.88;;;;;;;;;;5390364;26;20044;-51
2024/04/12 12:44:59;;;;;;;2.30;1.30;;;;;;;;;;5397988;26;20526;-52
2024/04/12 12:47:27;;;;;;;1.95;1.20;;;;;;;;;;5396276;26;20000;-55
2024/04/12 12:50:02;;;;;;;1.58;0.80;;;;;;;;;;5398751;26;20462;-69
2024/04/12 12:52:32;;;;;;;0.90;0.82;;;;;;;;;;5395966;26;22698;-69
2024/04/12 12:55:00;;;;;;;0.40;0.40;;;;;;;;;;5398098;26;20031;-71
2024/04/12 12:57:38;;;;;;;1.08;0.98;;;;;;;;;;5395868;26;20426;-70
2024/04/12 13:00:08;;;;;;;0.70;0.70;;;;;;;;;;5392223;26;20068;-69
2024/04/12 13:02:42;;;;;;;0.57;0.57;;;;;;;;;;5395741;26;20015;-60
2024/04/12 13:05:14;;;;;;;;;;;;;;;;;;5399616;26;20939;-60
2024/04/12 13:07:42;;;;;;;1.48;0.93;;;;;;;;;;5393669;26;19932;-59
2024/04/12 13:10:19;;;;;;;0.82;0.75;;;;;;;;;;5394349;26;20011;-60
2024/04/12 13:12:54;;;;;;;1.38;0.80;;;;;;;;;;5393933;26;20683;-60
2024/04/12 13:15:28;;;;;;;0.40;0.40;;;;;;;;;;5394728;26;20084;-59
2024/04/12 13:17:56;;;;;;;0.52;0.50;;;;;;;;;;5394095;26;20003;-63
2024/04/12 13:20:35;;;;;;;0.80;0.30;;;;;;;;;;5398214;26;20003;-63
2024/04/12 13:23:03;;;;;;;0.75;0.50;;;;;;;;;;5393838;26;20015;-60
2024/04/12 13:25:37;;;;;;;1.85;0.40;;;;;;;;;;5397728;26;20004;-63
2024/04/12 13:28:11;;;;;;;0.55;0.20;;;;;;;;;;5393126;26;20000;-56
2024/04/12 13:30:51;;;;;;;0.10;0.10;;;;;;;;;;5394647;26;20003;-61
2024/04/12 13:33:18;;;;;;;;;;;;;;;;;;5397027;26;20019;-62
2024/04/12 13:35:46;;;;;;;0.10;0.10;;;;;;;;;;5400095;26;19932;-61
2024/04/12 13:38:20;;;;;;;0.20;0.20;;;;;;;;;;5399708;26;20134;-61
2024/04/12 13:40:50;;;;;;;2.00;0.20;;;;;;;;;;5400752;26;20011;-61
2024/04/12 13:43:32;;;;;;;0.20;0.20;;;;;;;;;;5368951;26;19999;-61
2024/04/12 13:51:51;;;;;;;0.50;0.28;;;;;;;;;;5395412;26;20002;-61
2024/04/12 13:54:25;;;;;;;0.25;0.25;;;;;;;;;;5397569;26;20073;-60
2024/04/12 13:56:56;;;;;;;0.20;0.20;;;;;;;;;;5400889;26;20007;-60
2024/04/12 13:59:24;;;;;;;0.20;0.20;;;;;;;;;;5403348;26;20007;-68
2024/04/12 14:01:59;;;;;;;2.83;0.47;;;;;;;;;;5398493;26;20019;-69
2024/04/12 14:04:27;;;;;;;0.20;0.20;;;;;;;;;;5399200;26;20018;-69
2024/04/12 14:07:01;;;;;;;1.85;0.45;;;;;;;;;;5400730;26;20015;-69
2024/04/12 14:09:28;;;;;;;0.30;0.30;;;;;;;;;;5400726;26;20003;-69
2024/04/12 14:11:56;;;;;;;;;;;;;;;;;;5401694;26;20010;-69
2024/04/12 14:14:30;;;;;;;0.30;0.30;;;;;;;;;;5407382;26;19932;-49
2024/04/12 14:16:59;;;;;;;0.20;0.20;;;;;;;;;;5402517;26;20011;-49
2024/04/12 14:19:27;;;;;;;0.45;0.20;;;;;;;;;;5400325;26;20015;-49
2024/04/12 14:22:01;;;;;;;1.67;0.25;;;;;;;;;;5399173;26;20027;-52
2024/04/12 14:25:11;;;;;;;0.70;0.20;;;;;;;;;;5399611;26;20665;-67
2024/04/12 14:27:26;;;;;;;0.25;0.10;;;;;;;;;;5389705;26;20022;-68
2024/04/12 14:29:54;;;;;;;1.92;0.40;;;;;;;;;;5398240;26;20023;-53
2024/04/12 14:32:29;;;;;;;0.30;0.30;;;;;;;;;;5395290;26;20058;-51
2024/04/12 14:34:56;;;;;;;0.52;0.35;;;;;;;;;;5395399;26;20017;-53
2024/04/12 14:37:39;;;;;;;0.15;0.15;;;;;;;;;;5395701;26;20048;-51
2024/04/12 14:40:19;;;;;;;0.45;0.40;;;;;;;;;;5395239;26;20003;-51
2024/04/12 14:42:53;;;;;;;3.95;0.20;;;;;;;;;;5393738;26;20019;-51
2024/04/12 14:45:35;;;;;;;0.28;0.28;;;;;;;;;;5393823;26;20832;-50
2024/04/12 14:48:12;;;;;;;0.63;0.32;;;;;;;;;;5394367;26;20496;-52
2024/04/12 14:50:48;;;;;;;1.35;0.35;;;;;;;;;;5396635;26;20041;-52
2024/04/12 14:53:16;;;;;;;0.65;0.20;;;;;;;;;;5396073;26;20490;-55
2024/04/12 14:55:49;;;;;;;1.20;0.50;;;;;;;;;;5397389;26;20003;-55
2024/04/12 14:58:23;;;;;;;1.40;0.20;;;;;;;;;;5393664;26;20367;-61
2024/04/12 15:00:50;;;;;;;0.65;0.22;;;;;;;;;;5394277;26;20635;-61
2024/04/12 15:48:49;;;;;;;1.90;1.20;;;;;;;;;;5354584;26;20035;-66
2024/04/12 15:51:16;;;;;;;2.97;0.93;;;;;;;;;;5355511;26;20094;-65
2024/04/12 15:53:50;;;;;;;3.33;1.30;;;;;;;;;;5352279;26;20779;-66
2024/04/12 16:13:03;;;;;;;4.47;0.82;;;;;;;;;;5351839;26;20085;-59
2024/04/12 16:15:30;;;;;;;1.52;0.93;;;;;;;;;;5360946;26;20028;-59
2024/04/12 16:18:05;;;;;;;1.92;0.98;;;;;;;;;;5357611;26;20008;-59
2024/04/12 16:20:34;;;;;;;1.95;0.82;;;;;;;;;;5361102;26;20398;-63
2024/04/12 16:23:01;;;;;;;1.25;0.73;;;;;;;;;;5351425;26;20237;-63
2024/04/12 16:25:35;;;;;;;1.55;0.60;;;;;;;;;;5351697;26;20004;-61
2024/04/12 16:28:17;;;;;;;1.98;1.20;;;;;;;;;;5348745;26;20038;-61
2024/04/12 16:30:51;;;;;;;3.97;1.15;;;;;;;;;;5358909;26;20032;-61
2024/04/12 16:33:18;;;;;;;3.20;1.10;;;;;;;;;;5353166;26;20739;-61
2024/04/12 16:35:46;;;;;;;2.80;1.30;;;;;;;;;;5358567;26;20459;-61
2024/04/12 16:38:21;;;;;;;2.42;1.00;;;;;;;;;;5354777;26;20005;-61
2024/04/12 16:40:48;;;;;;;2.72;1.38;;;;;;;;;;5354395;26;20016;-61
2024/04/12 16:43:15;;;;;;;2.88;1.55;;;;;;;;;;5356502;26;20011;-62
2024/04/12 16:45:56;;;;;;;2.65;1.15;;;;;;;;;;5352632;26;20044;-63
2024/04/12 16:48:23;;;;;;;3.13;1.52;;;;;;;;;;5353398;26;20024;-49
2024/04/12 16:50:58;;;;;;;5.20;1.42;;;;;;;;;;5355337;26;22008;-51
2024/04/12 16:53:25;;;;;;;3.33;1.40;;;;;;;;;;5359671;26;20023;-49
2024/04/12 16:56:00;;;;;;;2.05;1.23;;;;;;;;;;5355604;26;20016;-50
2024/04/12 16:58:33;;;;;;;2.47;1.40;;;;;;;;;;5355097;26;20078;-49
2024/04/12 17:01:08;;;;;;;4.20;1.88;;;;;;;;;;5356791;26;20019;-49
2024/04/12 17:03:36;;;;;;;4.05;1.75;;;;;;;;;;5356958;26;20004;-60
2024/04/12 17:06:04;;;;;;;2.60;1.80;;;;;;;;;;5355585;26;20521;-59
2024/04/12 17:08:38;;;;;;;3.72;2.00;;;;;;;;;;5366147;26;20015;-59
2024/04/12 17:11:06;;;;;;;6.35;2.40;;;;;;;;;;5355261;26;20393;-59
2024/04/12 17:13:46;;;;;;;6.32;2.30;;;;;;;;;;5359882;26;20032;-59
2024/04/12 17:16:14;;;;;;;4.03;2.47;;;;;;;;;;5356086;26;20004;-59
2024/04/12 17:18:49;;;;;;;4.07;2.30;;;;;;;;;;5364902;26;20023;-59
2024/04/12 17:21:23;;;;;;;7.15;3.10;;;;;;;;;;5357043;26;20020;-59